createdAt,value
2023-05-09T16:15:43.169Z,2.50
2023-05-09T16:18:13.377Z,2.47
2023-05-09T16:20:44.206Z,2.70
2023-05-09T16:23:14.445Z,2.47
2023-05-09T16:25:44.871Z,2.70
2023-05-09T16:28:14.455Z,2.47
2023-05-09T16:31:08.603Z,2.38
2023-05-09T16:33:38.075Z,2.55
2023-05-09T16:36:08.040Z,2.65
2023-05-09T16:38:37.469Z,2.88
2023-05-09T16:41:06.610Z,3.00
2023-05-09T16:43:36.251Z,2.47
2023-05-09T16:46:07.741Z,2.65
2023-05-09T16:48:37.202Z,2.70
2023-05-09T16:51:07.025Z,2.33
2023-05-09T16:53:36.408Z,2.70
2023-05-09T16:56:07.555Z,2.25
2023-05-09T16:58:37.510Z,2.38
2023-05-09T17:01:08.030Z,2.65
2023-05-09T17:03:37.524Z,2.47
2023-05-09T17:06:06.988Z,3.20
2023-05-09T17:08:36.501Z,3.17
2023-05-09T17:11:06.129Z,2.97
2023-05-09T17:13:35.453Z,2.90
2023-05-09T17:16:04.932Z,4.13
2023-05-09T17:18:38.063Z,4.00
2023-05-09T17:21:07.811Z,2.75
2023-05-09T17:23:37.653Z,2.95
2023-05-09T17:26:06.801Z,3.08
2023-05-09T17:28:36.176Z,3.17
2023-05-09T17:31:05.464Z,3.33
2023-05-09T17:33:36.137Z,3.00
2023-05-09T17:36:05.586Z,2.78
2023-05-09T17:38:35.927Z,2.90
2023-05-09T17:41:05.864Z,3.03
2023-05-09T17:43:35.319Z,3.47
2023-05-09T17:46:04.961Z,3.47
2023-05-09T17:48:35.855Z,3.80
2023-05-09T17:51:05.479Z,3.45
2023-05-09T17:53:34.781Z,3.33
2023-05-09T17:56:03.953Z,3.38
2023-05-09T17:58:33.557Z,3.20
2023-05-09T18:01:03.060Z,3.22
2023-05-09T18:03:32.847Z,2.90
2023-05-09T18:06:03.531Z,3.45
2023-05-09T18:08:34.171Z,2.40
2023-05-09T18:11:03.548Z,2.75
2023-05-09T18:13:33.589Z,3.08
2023-05-09T18:16:02.899Z,4.05
2023-05-09T18:18:32.542Z,3.30
2023-05-09T18:21:04.966Z,3.45
2023-05-09T18:23:34.763Z,3.22
2023-05-09T18:26:04.458Z,3.05
2023-05-09T18:28:39.528Z,3.22
2023-05-09T18:31:11.873Z,3.67
2023-05-09T18:33:41.576Z,3.30
2023-05-09T18:36:12.454Z,3.30
2023-05-09T18:38:43.574Z,3.28
2023-05-09T18:41:13.832Z,3.72
2023-05-09T18:43:46.371Z,2.90
2023-05-09T18:46:17.772Z,3.08
2023-05-09T18:48:50.172Z,3.55
2023-05-09T18:51:21.574Z,4.18
2023-05-09T18:53:51.446Z,3.95
2023-05-09T18:56:22.271Z,4.13
2023-05-09T18:58:51.994Z,4.72
2023-05-09T19:01:21.470Z,4.20
2023-05-09T19:03:54.253Z,5.28
2023-05-09T19:06:26.262Z,5.15
2023-05-09T19:08:55.844Z,6.40
2023-05-09T19:11:25.189Z,5.25
2023-05-09T19:13:54.931Z,5.75
2023-05-09T19:16:26.669Z,6.28
2023-05-09T19:18:57.282Z,6.72
2023-05-09T19:21:28.360Z,6.68
2023-05-09T19:23:58.019Z,6.63
2023-05-09T19:26:27.304Z,6.10
2023-05-09T19:28:56.887Z,5.43
2023-05-09T19:31:26.427Z,6.32
2023-05-09T19:33:55.935Z,5.93
2023-05-09T19:36:26.560Z,5.07
2023-05-09T19:38:56.032Z,6.47
2023-05-09T19:41:25.197Z,5.65
2023-05-09T19:44:46.860Z,5.25
2023-05-09T19:47:16.354Z,4.55
2023-05-09T19:49:45.552Z,5.13
2023-05-09T19:52:14.886Z,5.97
2023-05-09T19:54:43.951Z,6.85
2023-05-09T19:57:13.664Z,6.85
2023-05-09T19:59:42.968Z,6.05
2023-05-09T20:02:13.791Z,6.57
2023-05-09T20:04:49.511Z,6.60
2023-05-09T20:07:19.281Z,7.55
2023-05-09T20:09:48.863Z,6.43
2023-05-09T20:12:18.297Z,6.35
2023-05-09T20:14:47.677Z,6.30
2023-05-09T20:17:18.652Z,7.60
2023-05-09T20:19:47.845Z,6.72
2023-05-09T20:22:18.476Z,6.40
2023-05-09T20:24:47.711Z,6.40
2023-05-09T20:27:17.566Z,6.95
2023-05-09T20:29:46.859Z,6.78
2023-05-09T20:32:17.619Z,6.25
2023-05-09T20:34:46.810Z,6.45
2023-05-09T20:37:16.254Z,6.13
2023-05-09T20:39:45.294Z,6.55
2023-05-09T20:42:14.688Z,6.53
2023-05-09T20:44:44.325Z,6.45
2023-05-09T20:47:13.800Z,6.90
2023-05-09T20:49:44.455Z,6.13
2023-05-09T20:52:14.220Z,6.47
2023-05-09T20:54:43.489Z,6.20
2023-05-09T20:57:13.128Z,5.88
2023-05-09T20:59:42.820Z,6.85
2023-05-09T21:02:12.372Z,7.03
2023-05-09T21:04:41.380Z,6.57
2023-05-09T21:07:12.656Z,6.15
2023-05-09T21:09:42.320Z,6.20
2023-05-09T21:12:11.652Z,6.30
2023-05-09T21:14:40.978Z,6.68
2023-05-09T21:17:10.561Z,7.38
2023-05-09T21:19:39.711Z,5.75
2023-05-09T21:22:09.348Z,5.90
2023-05-09T21:24:39.836Z,6.05
2023-05-09T21:27:09.300Z,6.30
2023-05-09T21:29:38.348Z,6.65
2023-05-09T21:32:08.109Z,6.05
2023-05-09T21:34:37.109Z,7.15
2023-05-09T21:37:06.557Z,5.82
2023-05-09T21:39:35.947Z,5.88
2023-05-09T21:42:06.792Z,5.72
2023-05-09T21:44:36.664Z,6.60
2023-05-09T21:47:06.488Z,5.25
2023-05-09T21:49:35.598Z,6.05
2023-05-09T21:52:05.333Z,5.75
2023-05-09T21:54:34.546Z,4.85
2023-05-09T21:57:05.365Z,5.80
2023-05-09T21:59:34.535Z,5.07
2023-05-09T22:02:04.065Z,6.22
2023-05-09T22:04:33.383Z,5.00
2023-05-09T22:07:02.771Z,4.82
2023-05-09T22:09:32.205Z,5.35
2023-05-09T22:12:01.606Z,4.50
2023-05-09T22:14:37.168Z,5.13
2023-05-09T22:17:11.492Z,5.43
2023-05-09T22:19:40.567Z,6.10
2023-05-09T22:22:10.034Z,5.70
2023-05-09T22:24:41.497Z,5.28
2023-05-09T22:27:11.300Z,5.05
2023-05-09T22:29:41.948Z,5.57
2023-05-09T22:32:11.663Z,4.57
2023-05-09T22:34:40.882Z,4.88
2023-05-09T22:37:10.231Z,4.97
